sensor_id;sensor_type;location;lat;lon;timestamp;P1;durP1;ratioP1;P2;durP2;ratioP2
52072;SDS011;38074;51.232;6.826;2022-12-18T00:05:21;7.80;;;4.30;;
52072;SDS011;38074;51.232;6.826;2022-12-18T00:12:36;8.80;;;4.57;;
52072;SDS011;38074;51.232;6.826;2022-12-18T00:19:52;6.83;;;4.10;;
52072;SDS011;38074;51.232;6.826;2022-12-18T00:27:07;5.27;;;3.47;;
52072;SDS011;38074;51.232;6.826;2022-12-18T00:34:23;7.32;;;3.78;;
52072;SDS011;38074;51.232;6.826;2022-12-18T00:41:38;5.23;;;3.40;;
52072;SDS011;38074;51.232;6.826;2022-12-18T00:49:14;7.68;;;4.03;;
52072;SDS011;38074;51.232;6.826;2022-12-18T00:56:34;6.40;;;3.88;;
52072;SDS011;38074;51.232;6.826;2022-12-18T01:03:51;5.68;;;4.00;;
52072;SDS011;38074;51.232;6.826;2022-12-18T01:11:11;6.67;;;3.93;;
52072;SDS011;38074;51.232;6.826;2022-12-18T01:18:28;6.03;;;3.88;;
52072;SDS011;38074;51.232;6.826;2022-12-18T01:25:44;6.57;;;4.20;;
52072;SDS011;38074;51.232;6.826;2022-12-18T01:32:59;5.93;;;4.33;;
52072;SDS011;38074;51.232;6.826;2022-12-18T01:40:15;7.53;;;4.63;;
52072;SDS011;38074;51.232;6.826;2022-12-18T01:55:00;6.63;;;4.05;;
52072;SDS011;38074;51.232;6.826;2022-12-18T02:02:19;6.10;;;4.00;;
52072;SDS011;38074;51.232;6.826;2022-12-18T02:09:46;5.28;;;3.95;;
52072;SDS011;38074;51.232;6.826;2022-12-18T02:17:22;5.07;;;3.63;;
52072;SDS011;38074;51.232;6.826;2022-12-18T02:32:04;7.30;;;4.00;;
52072;SDS011;38074;51.232;6.826;2022-12-18T02:39:25;6.35;;;3.90;;
52072;SDS011;38074;51.232;6.826;2022-12-18T02:46:48;5.30;;;4.05;;
52072;SDS011;38074;51.232;6.826;2022-12-18T02:54:10;3.83;;;2.95;;
52072;SDS011;38074;51.232;6.826;2022-12-18T03:01:43;5.05;;;3.20;;
52072;SDS011;38074;51.232;6.826;2022-12-18T03:09:13;5.95;;;3.80;;
52072;SDS011;38074;51.232;6.826;2022-12-18T03:16:32;5.05;;;3.30;;
52072;SDS011;38074;51.232;6.826;2022-12-18T03:23:51;5.00;;;3.63;;
52072;SDS011;38074;51.232;6.826;2022-12-18T03:31:09;6.03;;;3.43;;
52072;SDS011;38074;51.232;6.826;2022-12-18T03:38:26;5.43;;;3.00;;
52072;SDS011;38074;51.232;6.826;2022-12-18T03:45:43;4.67;;;2.70;;
52072;SDS011;38074;51.232;6.826;2022-12-18T03:53:25;10.27;;;3.60;;
52072;SDS011;38074;51.232;6.826;2022-12-18T04:00:49;7.65;;;2.90;;
52072;SDS011;38074;51.232;6.826;2022-12-18T04:08:08;4.18;;;2.70;;
52072;SDS011;38074;51.232;6.826;2022-12-18T04:15:24;7.38;;;2.75;;
52072;SDS011;38074;51.232;6.826;2022-12-18T04:22:40;4.35;;;2.17;;
52072;SDS011;38074;51.232;6.826;2022-12-18T04:29:55;3.77;;;2.03;;
52072;SDS011;38074;51.232;6.826;2022-12-18T04:37:11;5.23;;;2.13;;
52072;SDS011;38074;51.232;6.826;2022-12-18T04:44:26;3.20;;;1.70;;
52072;SDS011;38074;51.232;6.826;2022-12-18T04:51:42;3.40;;;1.70;;
52072;SDS011;38074;51.232;6.826;2022-12-18T04:58:57;5.70;;;2.10;;
52072;SDS011;38074;51.232;6.826;2022-12-18T05:06:13;2.47;;;1.40;;
52072;SDS011;38074;51.232;6.826;2022-12-18T05:13:29;2.90;;;1.65;;
52072;SDS011;38074;51.232;6.826;2022-12-18T05:20:45;17.05;;;2.88;;
52072;SDS011;38074;51.232;6.826;2022-12-18T05:28:00;7.87;;;1.93;;
52072;SDS011;38074;51.232;6.826;2022-12-18T05:35:16;5.13;;;2.07;;
52072;SDS011;38074;51.232;6.826;2022-12-18T05:42:31;7.38;;;1.55;;
52072;SDS011;38074;51.232;6.826;2022-12-18T05:49:47;6.53;;;1.50;;
52072;SDS011;38074;51.232;6.826;2022-12-18T05:57:02;4.20;;;1.90;;
52072;SDS011;38074;51.232;6.826;2022-12-18T06:04:18;3.95;;;1.50;;
52072;SDS011;38074;51.232;6.826;2022-12-18T06:11:34;3.87;;;1.67;;
52072;SDS011;38074;51.232;6.826;2022-12-18T06:18:51;3.17;;;1.30;;
52072;SDS011;38074;51.232;6.826;2022-12-18T06:26:07;2.67;;;1.47;;
52072;SDS011;38074;51.232;6.826;2022-12-18T06:33:26;3.03;;;1.40;;
52072;SDS011;38074;51.232;6.826;2022-12-18T06:40:42;3.50;;;1.60;;
52072;SDS011;38074;51.232;6.826;2022-12-18T06:47:58;11.47;;;1.90;;
52072;SDS011;38074;51.232;6.826;2022-12-18T06:55:14;9.57;;;1.83;;
52072;SDS011;38074;51.232;6.826;2022-12-18T07:02:29;7.33;;;1.80;;
52072;SDS011;38074;51.232;6.826;2022-12-18T07:09:45;8.80;;;1.50;;
52072;SDS011;38074;51.232;6.826;2022-12-18T07:17:00;10.70;;;2.03;;
52072;SDS011;38074;51.232;6.826;2022-12-18T07:24:16;6.85;;;1.85;;
52072;SDS011;38074;51.232;6.826;2022-12-18T07:31:31;6.90;;;1.83;;
52072;SDS011;38074;51.232;6.826;2022-12-18T07:38:47;14.60;;;3.10;;
52072;SDS011;38074;51.232;6.826;2022-12-18T07:46:05;6.90;;;2.45;;
52072;SDS011;38074;51.232;6.826;2022-12-18T07:53:21;5.82;;;1.90;;
52072;SDS011;38074;51.232;6.826;2022-12-18T08:00:36;5.63;;;1.97;;
52072;SDS011;38074;51.232;6.826;2022-12-18T08:07:52;6.13;;;1.70;;
52072;SDS011;38074;51.232;6.826;2022-12-18T08:15:08;6.88;;;2.05;;
52072;SDS011;38074;51.232;6.826;2022-12-18T08:22:24;7.90;;;2.00;;
52072;SDS011;38074;51.232;6.826;2022-12-18T08:29:40;6.38;;;2.08;;
52072;SDS011;38074;51.232;6.826;2022-12-18T08:36:55;7.47;;;2.20;;
52072;SDS011;38074;51.232;6.826;2022-12-18T08:44:11;8.23;;;2.30;;
52072;SDS011;38074;51.232;6.826;2022-12-18T08:51:45;6.50;;;2.10;;
52072;SDS011;38074;51.232;6.826;2022-12-18T08:59:00;9.03;;;2.87;;
52072;SDS011;38074;51.232;6.826;2022-12-18T09:06:16;17.43;;;5.53;;
52072;SDS011;38074;51.232;6.826;2022-12-18T09:13:33;24.65;;;6.18;;
52072;SDS011;38074;51.232;6.826;2022-12-18T09:20:49;23.97;;;6.07;;
52072;SDS011;38074;51.232;6.826;2022-12-18T09:35:29;13.30;;;4.43;;
52072;SDS011;38074;51.232;6.826;2022-12-18T09:42:45;11.53;;;3.93;;
52072;SDS011;38074;51.232;6.826;2022-12-18T09:50:16;11.80;;;4.18;;
52072;SDS011;38074;51.232;6.826;2022-12-18T09:57:33;14.38;;;3.47;;
52072;SDS011;38074;51.232;6.826;2022-12-18T10:19:43;14.73;;;3.10;;
52072;SDS011;38074;51.232;6.826;2022-12-18T10:27:16;12.80;;;3.45;;
52072;SDS011;38074;51.232;6.826;2022-12-18T10:34:33;9.30;;;2.92;;
52072;SDS011;38074;51.232;6.826;2022-12-18T10:41:49;12.80;;;3.85;;
52072;SDS011;38074;51.232;6.826;2022-12-18T10:49:04;7.70;;;2.75;;
52072;SDS011;38074;51.232;6.826;2022-12-18T10:56:20;11.90;;;4.00;;
52072;SDS011;38074;51.232;6.826;2022-12-18T11:10:53;22.13;;;4.50;;
52072;SDS011;38074;51.232;6.826;2022-12-18T11:18:15;14.97;;;3.73;;
52072;SDS011;38074;51.232;6.826;2022-12-18T11:25:37;17.92;;;3.38;;
52072;SDS011;38074;51.232;6.826;2022-12-18T11:40:22;8.68;;;3.03;;
52072;SDS011;38074;51.232;6.826;2022-12-18T12:26:11;9.77;;;2.65;;
52072;SDS011;38074;51.232;6.826;2022-12-18T12:33:44;10.38;;;3.00;;
52072;SDS011;38074;51.232;6.826;2022-12-18T12:41:22;7.53;;;2.50;;
52072;SDS011;38074;51.232;6.826;2022-12-18T12:48:59;8.00;;;3.00;;
52072;SDS011;38074;51.232;6.826;2022-12-18T12:56:19;7.78;;;3.03;;
52072;SDS011;38074;51.232;6.826;2022-12-18T13:03:52;7.07;;;2.60;;
52072;SDS011;38074;51.232;6.826;2022-12-18T13:11:15;8.23;;;2.58;;
52072;SDS011;38074;51.232;6.826;2022-12-18T13:19:21;8.77;;;2.83;;
52072;SDS011;38074;51.232;6.826;2022-12-18T13:26:38;12.43;;;3.05;;
52072;SDS011;38074;51.232;6.826;2022-12-18T13:33:55;6.27;;;2.93;;
52072;SDS011;38074;51.232;6.826;2022-12-18T13:41:26;10.80;;;2.60;;
52072;SDS011;38074;51.232;6.826;2022-12-18T13:48:47;8.45;;;3.13;;
52072;SDS011;38074;51.232;6.826;2022-12-18T13:56:08;8.88;;;2.78;;
52072;SDS011;38074;51.232;6.826;2022-12-18T14:03:28;5.60;;;2.63;;
52072;SDS011;38074;51.232;6.826;2022-12-18T14:10:45;6.18;;;2.22;;
52072;SDS011;38074;51.232;6.826;2022-12-18T14:18:03;7.82;;;2.45;;
52072;SDS011;38074;51.232;6.826;2022-12-18T14:25:45;6.50;;;2.50;;
52072;SDS011;38074;51.232;6.826;2022-12-18T14:40:23;4.07;;;2.47;;
52072;SDS011;38074;51.232;6.826;2022-12-18T14:47:38;6.28;;;2.33;;
52072;SDS011;38074;51.232;6.826;2022-12-18T14:54:58;4.03;;;2.22;;
52072;SDS011;38074;51.232;6.826;2022-12-18T15:02:18;5.13;;;2.87;;
52072;SDS011;38074;51.232;6.826;2022-12-18T15:09:34;3.63;;;2.03;;
52072;SDS011;38074;51.232;6.826;2022-12-18T15:16:53;4.53;;;2.25;;
52072;SDS011;38074;51.232;6.826;2022-12-18T15:24:24;5.43;;;2.20;;
52072;SDS011;38074;51.232;6.826;2022-12-18T15:31:57;7.47;;;2.85;;
52072;SDS011;38074;51.232;6.826;2022-12-18T15:39:18;4.00;;;2.45;;
52072;SDS011;38074;51.232;6.826;2022-12-18T15:46:34;4.30;;;2.58;;
52072;SDS011;38074;51.232;6.826;2022-12-18T15:53:50;6.60;;;2.23;;
52072;SDS011;38074;51.232;6.826;2022-12-18T16:01:09;3.08;;;1.85;;
52072;SDS011;38074;51.232;6.826;2022-12-18T16:08:25;4.53;;;2.30;;
52072;SDS011;38074;51.232;6.826;2022-12-18T16:15:41;7.53;;;3.07;;
52072;SDS011;38074;51.232;6.826;2022-12-18T16:22:56;3.90;;;2.43;;
52072;SDS011;38074;51.232;6.826;2022-12-18T16:30:15;3.93;;;2.60;;
52072;SDS011;38074;51.232;6.826;2022-12-18T16:37:32;3.65;;;2.38;;
52072;SDS011;38074;51.232;6.826;2022-12-18T16:44:48;5.43;;;2.67;;
52072;SDS011;38074;51.232;6.826;2022-12-18T16:52:04;4.22;;;2.40;;
52072;SDS011;38074;51.232;6.826;2022-12-18T16:59:20;6.10;;;2.90;;
52072;SDS011;38074;51.232;6.826;2022-12-18T17:06:38;6.57;;;2.78;;
52072;SDS011;38074;51.232;6.826;2022-12-18T17:13:56;4.32;;;1.95;;
52072;SDS011;38074;51.232;6.826;2022-12-18T17:21:12;2.20;;;1.40;;
52072;SDS011;38074;51.232;6.826;2022-12-18T17:28:28;4.68;;;2.30;;
52072;SDS011;38074;51.232;6.826;2022-12-18T17:35:44;5.20;;;2.10;;
52072;SDS011;38074;51.232;6.826;2022-12-18T17:43:00;3.88;;;2.22;;
52072;SDS011;38074;51.232;6.826;2022-12-18T17:50:15;5.27;;;2.53;;
52072;SDS011;38074;51.232;6.826;2022-12-18T17:57:31;4.20;;;2.27;;
52072;SDS011;38074;51.232;6.826;2022-12-18T18:04:46;5.03;;;2.63;;
52072;SDS011;38074;51.232;6.826;2022-12-18T18:12:02;3.37;;;2.00;;
52072;SDS011;38074;51.232;6.826;2022-12-18T18:19:36;5.80;;;2.58;;
52072;SDS011;38074;51.232;6.826;2022-12-18T18:26:52;7.43;;;2.80;;
52072;SDS011;38074;51.232;6.826;2022-12-18T18:34:12;11.33;;;2.87;;
52072;SDS011;38074;51.232;6.826;2022-12-18T18:41:30;7.63;;;2.97;;
52072;SDS011;38074;51.232;6.826;2022-12-18T18:48:45;9.17;;;3.03;;
52072;SDS011;38074;51.232;6.826;2022-12-18T18:56:01;5.43;;;2.90;;
52072;SDS011;38074;51.232;6.826;2022-12-18T19:03:16;6.80;;;2.50;;
52072;SDS011;38074;51.232;6.826;2022-12-18T19:10:38;6.78;;;2.63;;
52072;SDS011;38074;51.232;6.826;2022-12-18T19:17:54;8.65;;;2.83;;
52072;SDS011;38074;51.232;6.826;2022-12-18T19:25:10;16.60;;;5.03;;
52072;SDS011;38074;51.232;6.826;2022-12-18T19:32:25;18.07;;;5.53;;
52072;SDS011;38074;51.232;6.826;2022-12-18T19:39:41;14.60;;;5.40;;
52072;SDS011;38074;51.232;6.826;2022-12-18T19:46:56;14.17;;;4.93;;
52072;SDS011;38074;51.232;6.826;2022-12-18T19:54:12;12.53;;;4.47;;
52072;SDS011;38074;51.232;6.826;2022-12-18T20:01:30;9.70;;;4.43;;
52072;SDS011;38074;51.232;6.826;2022-12-18T20:08:46;11.40;;;4.70;;
52072;SDS011;38074;51.232;6.826;2022-12-18T20:16:01;11.00;;;4.27;;
52072;SDS011;38074;51.232;6.826;2022-12-18T20:23:17;10.60;;;3.70;;
52072;SDS011;38074;51.232;6.826;2022-12-18T20:30:33;9.77;;;3.90;;
52072;SDS011;38074;51.232;6.826;2022-12-18T20:37:48;12.60;;;3.87;;
52072;SDS011;38074;51.232;6.826;2022-12-18T20:45:04;8.57;;;3.73;;
52072;SDS011;38074;51.232;6.826;2022-12-18T20:52:20;15.38;;;4.20;;
52072;SDS011;38074;51.232;6.826;2022-12-18T20:59:36;10.87;;;4.03;;
52072;SDS011;38074;51.232;6.826;2022-12-18T21:06:51;10.63;;;3.67;;
52072;SDS011;38074;51.232;6.826;2022-12-18T21:21:30;10.23;;;3.78;;
52072;SDS011;38074;51.232;6.826;2022-12-18T21:28:46;10.03;;;3.53;;
52072;SDS011;38074;51.232;6.826;2022-12-18T21:36:06;9.00;;;4.28;;
52072;SDS011;38074;51.232;6.826;2022-12-18T21:43:22;8.47;;;3.30;;
52072;SDS011;38074;51.232;6.826;2022-12-18T21:50:56;5.32;;;2.85;;
52072;SDS011;38074;51.232;6.826;2022-12-18T21:58:12;6.70;;;3.33;;
52072;SDS011;38074;51.232;6.826;2022-12-18T22:05:27;7.40;;;3.10;;
52072;SDS011;38074;51.232;6.826;2022-12-18T22:12:43;7.37;;;3.73;;
52072;SDS011;38074;51.232;6.826;2022-12-18T22:19:58;6.67;;;2.97;;
52072;SDS011;38074;51.232;6.826;2022-12-18T22:27:15;6.55;;;3.17;;
52072;SDS011;38074;51.232;6.826;2022-12-18T22:34:31;7.30;;;3.17;;
52072;SDS011;38074;51.232;6.826;2022-12-18T22:41:46;5.73;;;2.87;;
52072;SDS011;38074;51.232;6.826;2022-12-18T22:49:02;5.40;;;2.47;;
52072;SDS011;38074;51.232;6.826;2022-12-18T22:56:18;5.57;;;2.93;;
52072;SDS011;38074;51.232;6.826;2022-12-18T23:03:34;5.13;;;2.93;;
52072;SDS011;38074;51.232;6.826;2022-12-18T23:10:51;5.57;;;2.80;;
52072;SDS011;38074;51.232;6.826;2022-12-18T23:18:07;5.60;;;2.50;;
52072;SDS011;38074;51.232;6.826;2022-12-18T23:25:22;5.57;;;2.97;;
52072;SDS011;38074;51.232;6.826;2022-12-18T23:32:38;4.53;;;2.47;;
52072;SDS011;38074;51.232;6.826;2022-12-18T23:39:53;3.55;;;2.65;;
52072;SDS011;38074;51.232;6.826;2022-12-18T23:47:09;5.53;;;2.73;;
52072;SDS011;38074;51.232;6.826;2022-12-18T23:54:24;4.38;;;2.17;;
